sensor_id;sensor_type;location;lat;lon;timestamp;pressure;altitude;pressure_sealevel;temperature;humidity
75945;BME280;64628;50.104;14.614;2023-02-01T19:51:12;98280.86;;;2.06;52.55
75945;BME280;64628;50.104;14.614;2023-02-01T19:53:36;98279.66;;;2.72;50.57
75945;BME280;64628;50.104;14.614;2023-02-01T19:56:02;98276.57;;;4.26;49.01
75945;BME280;64628;50.104;14.614;2023-02-01T19:58:29;98271.20;;;3.53;50.35
75945;BME280;64628;50.104;14.614;2023-02-01T20:01:39;98270.12;;;3.93;49.91
75945;BME280;64628;50.104;14.614;2023-02-01T20:04:05;98271.37;;;4.07;50.46
75945;BME280;64628;50.104;14.614;2023-02-01T20:06:30;98266.57;;;3.51;52.04
75945;BME280;64628;50.104;14.614;2023-02-01T20:08:54;98279.90;;;3.79;52.14
75945;BME280;64628;50.104;14.614;2023-02-01T20:11:20;98297.06;;;3.32;52.71
75945;BME280;64628;50.104;14.614;2023-02-01T20:13:46;98292.67;;;3.34;52.57
75945;BME280;64628;50.104;14.614;2023-02-01T20:16:11;98290.87;;;3.24;52.96
75945;BME280;64628;50.104;14.614;2023-02-01T20:18:42;98301.50;;;3.04;53.27
75945;BME280;64628;50.104;14.614;2023-02-01T20:21:03;98297.11;;;2.98;53.35
75945;BME280;64628;50.104;14.614;2023-02-01T20:23:28;98295.65;;;3.30;53.29
75945;BME280;64628;50.104;14.614;2023-02-01T20:25:54;98302.95;;;3.24;53.17
75945;BME280;64628;50.104;14.614;2023-02-01T20:28:19;98306.82;;;3.03;53.26
75945;BME280;64628;50.104;14.614;2023-02-01T20:30:46;98295.53;;;3.30;53.23
75945;BME280;64628;50.104;14.614;2023-02-01T20:33:11;98296.82;;;3.32;53.01
75945;BME280;64628;50.104;14.614;2023-02-01T20:35:36;98295.51;;;3.13;53.46
75945;BME280;64628;50.104;14.614;2023-02-01T20:38:02;98295.17;;;3.42;53.02
75945;BME280;64628;50.104;14.614;2023-02-01T20:40:28;98292.55;;;3.37;52.57
75945;BME280;64628;50.104;14.614;2023-02-01T20:42:53;98302.56;;;3.73;51.93
75945;BME280;64628;50.104;14.614;2023-02-01T20:45:19;98298.35;;;3.63;52.40
75945;BME280;64628;50.104;14.614;2023-02-01T20:47:48;98301.28;;;3.23;52.24
75945;BME280;64628;50.104;14.614;2023-02-01T20:50:11;98294.67;;;3.29;52.37
75945;BME280;64628;50.104;14.614;2023-02-01T20:52:36;98292.19;;;3.32;52.95
75945;BME280;64628;50.104;14.614;2023-02-01T20:55:02;98288.98;;;3.36;52.93
75945;BME280;64628;50.104;14.614;2023-02-01T20:57:27;98286.77;;;3.45;52.76
75945;BME280;64628;50.104;14.614;2023-02-01T20:59:53;98292.62;;;3.06;53.48
75945;BME280;64628;50.104;14.614;2023-02-01T21:02:20;98291.35;;;2.97;53.59
75945;BME280;64628;50.104;14.614;2023-02-01T21:04:44;98295.10;;;3.18;53.32
75945;BME280;64628;50.104;14.614;2023-02-01T21:07:10;98300.18;;;3.35;52.99
75945;BME280;64628;50.104;14.614;2023-02-01T21:09:36;98292.74;;;3.25;53.10
75945;BME280;64628;50.104;14.614;2023-02-01T21:12:02;98285.08;;;2.99;53.58
75945;BME280;64628;50.104;14.614;2023-02-01T21:14:27;98293.30;;;2.96;53.66
75945;BME280;64628;50.104;14.614;2023-02-01T21:16:53;98285.15;;;3.06;53.39
75945;BME280;64628;50.104;14.614;2023-02-01T21:19:19;98285.69;;;3.34;53.30
75945;BME280;64628;50.104;14.614;2023-02-01T21:21:44;98281.60;;;3.19;53.07
75945;BME280;64628;50.104;14.614;2023-02-01T21:24:10;98287.19;;;3.10;53.31
75945;BME280;64628;50.104;14.614;2023-02-01T21:26:36;98284.03;;;3.12;53.10
75945;BME280;64628;50.104;14.614;2023-02-01T21:29:02;98283.23;;;3.32;52.59
75945;BME280;64628;50.104;14.614;2023-02-01T21:31:27;98285.04;;;3.35;52.59
75945;BME280;64628;50.104;14.614;2023-02-01T21:33:53;98279.70;;;3.40;52.52
75945;BME280;64628;50.104;14.614;2023-02-01T21:36:19;98276.32;;;3.46;52.28
75945;BME280;64628;50.104;14.614;2023-02-01T21:38:45;98282.69;;;3.39;52.18
75945;BME280;64628;50.104;14.614;2023-02-01T21:41:10;98291.72;;;3.36;52.37
75945;BME280;64628;50.104;14.614;2023-02-01T21:43:35;98298.70;;;3.27;52.40
75945;BME280;64628;50.104;14.614;2023-02-01T21:46:01;98293.20;;;3.34;52.24
75945;BME280;64628;50.104;14.614;2023-02-01T21:48:27;98300.82;;;3.16;52.53
75945;BME280;64628;50.104;14.614;2023-02-01T21:50:53;98317.39;;;3.10;52.50
75945;BME280;64628;50.104;14.614;2023-02-01T21:53:18;98327.23;;;3.18;52.51
75945;BME280;64628;50.104;14.614;2023-02-01T21:55:44;98328.96;;;3.11;52.61
75945;BME280;64628;50.104;14.614;2023-02-01T21:58:10;98330.67;;;3.76;52.39
75945;BME280;64628;50.104;14.614;2023-02-01T22:00:35;98329.83;;;3.21;51.97
75945;BME280;64628;50.104;14.614;2023-02-01T22:03:01;98324.84;;;3.61;51.76
75945;BME280;64628;50.104;14.614;2023-02-01T22:05:27;98306.29;;;3.78;51.35
75945;BME280;64628;50.104;14.614;2023-02-01T22:07:52;98301.86;;;3.52;51.22
75945;BME280;64628;50.104;14.614;2023-02-01T22:10:18;98312.93;;;3.72;51.33
75945;BME280;64628;50.104;14.614;2023-02-01T22:12:44;98315.21;;;3.69;51.30
75945;BME280;64628;50.104;14.614;2023-02-01T22:15:10;98315.79;;;3.65;51.46
75945;BME280;64628;50.104;14.614;2023-02-01T22:17:35;98317.75;;;3.64;51.33
75945;BME280;64628;50.104;14.614;2023-02-01T22:20:01;98322.37;;;3.52;51.50
75945;BME280;64628;50.104;14.614;2023-02-01T22:22:26;98317.50;;;3.42;51.56
75945;BME280;64628;50.104;14.614;2023-02-01T22:24:52;98318.01;;;3.10;51.72
75945;BME280;64628;50.104;14.614;2023-02-01T22:27:17;98313.51;;;3.29;51.78
75945;BME280;64628;50.104;14.614;2023-02-01T22:29:43;98314.00;;;3.31;51.76
75945;BME280;64628;50.104;14.614;2023-02-01T22:32:09;98318.43;;;3.27;51.46
75945;BME280;64628;50.104;14.614;2023-02-01T22:34:34;98316.90;;;3.20;51.48
75945;BME280;64628;50.104;14.614;2023-02-01T22:37:00;98316.12;;;3.38;51.13
75945;BME280;64628;50.104;14.614;2023-02-01T22:39:25;98318.96;;;3.07;51.34
75945;BME280;64628;50.104;14.614;2023-02-01T22:41:51;98318.05;;;3.34;50.78
75945;BME280;64628;50.104;14.614;2023-02-01T22:44:17;98325.23;;;3.55;50.48
75945;BME280;64628;50.104;14.614;2023-02-01T22:46:42;98321.74;;;3.64;50.47
75945;BME280;64628;50.104;14.614;2023-02-01T22:49:08;98321.80;;;3.82;49.67
75945;BME280;64628;50.104;14.614;2023-02-01T22:51:34;98322.43;;;3.64;49.93
75945;BME280;64628;50.104;14.614;2023-02-01T22:54:00;98318.78;;;3.59;49.51
75945;BME280;64628;50.104;14.614;2023-02-01T22:56:27;98323.76;;;3.40;49.28
75945;BME280;64628;50.104;14.614;2023-02-01T22:58:55;98320.34;;;3.55;49.28
75945;BME280;64628;50.104;14.614;2023-02-01T23:01:16;98322.99;;;3.44;49.39
75945;BME280;64628;50.104;14.614;2023-02-01T23:03:42;98320.70;;;3.74;48.95
75945;BME280;64628;50.104;14.614;2023-02-01T23:06:08;98326.47;;;3.55;48.91
75945;BME280;64628;50.104;14.614;2023-02-01T23:08:33;98328.39;;;3.67;48.96
75945;BME280;64628;50.104;14.614;2023-02-01T23:11:00;98325.55;;;3.59;48.89
75945;BME280;64628;50.104;14.614;2023-02-01T23:13:24;98325.77;;;3.59;48.58
75945;BME280;64628;50.104;14.614;2023-02-01T23:15:49;98323.45;;;3.90;48.45
75945;BME280;64628;50.104;14.614;2023-02-01T23:18:15;98317.99;;;4.07;48.55
75945;BME280;64628;50.104;14.614;2023-02-01T23:20:40;98319.37;;;3.86;48.22
75945;BME280;64628;50.104;14.614;2023-02-01T23:23:06;98319.33;;;3.70;48.36
75945;BME280;64628;50.104;14.614;2023-02-01T23:25:32;98321.26;;;4.05;48.30
75945;BME280;64628;50.104;14.614;2023-02-01T23:27:57;98323.56;;;3.85;48.16
75945;BME280;64628;50.104;14.614;2023-02-01T23:30:23;98325.42;;;3.91;48.16
75945;BME280;64628;50.104;14.614;2023-02-01T23:32:49;98326.03;;;3.76;48.52
75945;BME280;64628;50.104;14.614;2023-02-01T23:35:14;98329.94;;;3.79;47.97
75945;BME280;64628;50.104;14.614;2023-02-01T23:37:39;98331.30;;;3.76;48.10
75945;BME280;64628;50.104;14.614;2023-02-01T23:40:06;98328.88;;;3.76;47.99
75945;BME280;64628;50.104;14.614;2023-02-01T23:42:31;98333.96;;;4.13;47.72
75945;BME280;64628;50.104;14.614;2023-02-01T23:44:57;98332.86;;;4.19;47.48
75945;BME280;64628;50.104;14.614;2023-02-01T23:47:22;98335.74;;;4.15;47.43
75945;BME280;64628;50.104;14.614;2023-02-01T23:49:48;98337.74;;;4.31;46.93
75945;BME280;64628;50.104;14.614;2023-02-01T23:52:14;98339.79;;;4.36;46.37
75945;BME280;64628;50.104;14.614;2023-02-01T23:54:39;98338.10;;;4.08;46.83
75945;BME280;64628;50.104;14.614;2023-02-01T23:57:05;98340.08;;;4.39;46.42
75945;BME280;64628;50.104;14.614;2023-02-01T23:59:30;98338.04;;;4.14;46.53
